createdAt,value
2023-05-21T00:01:16.499Z,17.01
2023-05-21T00:03:45.958Z,16.97
2023-05-21T00:06:15.530Z,16.99
2023-05-21T00:08:43.457Z,16.99
2023-05-21T00:11:11.093Z,17.00
2023-05-21T00:13:38.722Z,16.97
2023-05-21T00:16:07.044Z,16.93
2023-05-21T00:18:35.246Z,16.91
2023-05-21T00:21:03.032Z,16.89
2023-05-21T00:23:32.837Z,16.93
2023-05-21T00:26:00.609Z,16.95
2023-05-21T00:28:28.260Z,16.95
2023-05-21T00:30:56.046Z,16.90
2023-05-21T00:33:26.427Z,16.89
2023-05-21T00:35:54.204Z,16.88
2023-05-21T00:38:22.134Z,16.84
2023-05-21T00:40:51.184Z,16.81
2023-05-21T00:43:18.826Z,16.80
2023-05-21T00:45:47.444Z,16.78
2023-05-21T00:48:16.028Z,16.78
2023-05-21T00:50:44.965Z,16.76
2023-05-21T00:53:13.470Z,16.73
2023-05-21T00:55:42.070Z,16.79
2023-05-21T00:58:11.135Z,16.77
2023-05-21T01:00:40.523Z,16.74
2023-05-21T01:03:08.344Z,16.73
2023-05-21T01:05:36.965Z,16.75
2023-05-21T01:08:05.640Z,16.81
2023-05-21T01:10:33.546Z,16.80
2023-05-21T01:13:01.500Z,16.77
2023-05-21T01:15:30.827Z,16.71
2023-05-21T01:17:58.586Z,16.75
2023-05-21T01:20:26.415Z,16.69
2023-05-21T01:22:56.520Z,16.66
2023-05-21T01:25:25.087Z,16.66
2023-05-21T01:27:52.940Z,16.70
2023-05-21T01:30:22.792Z,16.74
2023-05-21T01:32:56.277Z,16.73
2023-05-21T01:35:29.785Z,16.72
2023-05-21T01:38:03.971Z,16.74
2023-05-21T01:40:38.310Z,16.69
2023-05-21T01:43:08.220Z,16.63
2023-05-21T01:45:39.733Z,16.59
2023-05-21T01:48:09.309Z,16.60
2023-05-21T01:50:39.026Z,16.57
2023-05-21T01:53:08.052Z,16.55
2023-05-21T01:55:39.529Z,16.61
2023-05-21T01:58:07.221Z,16.69
2023-05-21T02:00:34.847Z,16.70
2023-05-21T02:03:02.669Z,16.62
2023-05-21T02:05:30.496Z,16.59
2023-05-21T02:08:00.572Z,16.66
2023-05-21T02:10:29.607Z,16.60
2023-05-21T02:12:57.201Z,16.57
2023-05-21T02:15:24.960Z,16.59
2023-05-21T02:17:53.073Z,16.57
2023-05-21T02:20:22.285Z,16.54
2023-05-21T02:22:50.484Z,16.50
2023-05-21T02:25:19.894Z,16.50
2023-05-21T02:27:53.912Z,16.59
2023-05-21T02:30:21.805Z,16.62
2023-05-21T02:32:50.781Z,16.55
2023-05-21T02:35:18.633Z,16.48
2023-05-21T02:37:46.238Z,16.48
2023-05-21T02:40:14.154Z,16.50
2023-05-21T02:42:42.178Z,16.45
2023-05-21T02:45:13.554Z,16.38
2023-05-21T02:47:41.443Z,16.43
2023-05-21T02:50:10.546Z,16.40
2023-05-21T02:52:38.151Z,16.34
2023-05-21T02:55:06.546Z,16.33
2023-05-21T02:57:34.176Z,16.32
2023-05-21T03:00:01.819Z,16.26
2023-05-21T03:02:30.963Z,16.22
2023-05-21T03:04:58.940Z,16.19
2023-05-21T03:07:26.779Z,16.18
2023-05-21T03:09:54.405Z,16.17
2023-05-21T03:12:22.038Z,16.20
2023-05-21T03:14:51.391Z,16.14
2023-05-21T03:17:20.580Z,16.09
2023-05-21T03:19:50.094Z,16.05
2023-05-21T03:22:17.743Z,16.05
2023-05-21T03:24:46.315Z,16.00
2023-05-21T03:27:14.048Z,15.98
2023-05-21T03:29:43.203Z,15.98
2023-05-21T03:32:10.935Z,15.96
2023-05-21T03:34:38.509Z,16.00
2023-05-21T03:37:07.648Z,15.98
2023-05-21T03:39:35.238Z,15.95
2023-05-21T03:42:02.875Z,15.92
2023-05-21T03:44:32.397Z,15.89
2023-05-21T03:47:00.144Z,15.90
2023-05-21T03:49:27.851Z,15.89
2023-05-21T03:51:55.509Z,15.88
2023-05-21T03:54:24.487Z,15.84
2023-05-21T03:56:52.095Z,15.79
2023-05-21T03:59:19.739Z,15.76
2023-05-21T04:01:47.331Z,15.79
2023-05-21T04:04:15.185Z,15.82
2023-05-21T04:06:42.852Z,15.76
2023-05-21T04:09:10.487Z,15.78
2023-05-21T04:11:39.407Z,15.86
2023-05-21T04:14:07.230Z,15.88
2023-05-21T04:16:35.994Z,15.81
2023-05-21T04:19:03.682Z,15.75
2023-05-21T04:21:32.219Z,15.78
2023-05-21T04:24:00.856Z,15.83
2023-05-21T04:26:29.506Z,15.78
2023-05-21T04:28:59.384Z,15.69
2023-05-21T04:31:27.086Z,15.64
2023-05-21T04:33:54.737Z,15.63
2023-05-21T04:36:22.366Z,15.62
2023-05-21T04:38:49.971Z,15.61
2023-05-21T04:41:18.928Z,15.68
2023-05-21T04:43:46.676Z,15.65
2023-05-21T04:46:15.818Z,15.65
2023-05-21T04:48:45.128Z,15.74
2023-05-21T04:51:12.752Z,15.75
2023-05-21T04:53:40.484Z,15.77
2023-05-21T04:56:09.261Z,15.75
2023-05-21T04:58:37.234Z,15.78
2023-05-21T05:01:05.031Z,15.77
2023-05-21T05:03:34.046Z,15.74
2023-05-21T05:06:04.289Z,15.74
2023-05-21T05:08:31.928Z,15.83
2023-05-21T05:10:59.564Z,15.80
2023-05-21T05:13:27.184Z,15.91
2023-05-21T05:15:54.949Z,15.89
2023-05-21T05:18:22.588Z,15.83
2023-05-21T05:20:51.568Z,15.81
2023-05-21T05:23:19.144Z,15.80
2023-05-21T05:25:46.832Z,15.80
2023-05-21T05:28:14.494Z,15.80
2023-05-21T05:30:42.137Z,15.89
2023-05-21T05:33:09.821Z,15.94
2023-05-21T05:35:37.733Z,15.94
2023-05-21T05:38:08.848Z,16.05
2023-05-21T05:40:36.487Z,16.09
2023-05-21T05:43:04.163Z,16.07
2023-05-21T05:45:31.762Z,16.12
2023-05-21T05:47:59.376Z,16.16
2023-05-21T05:50:27.058Z,16.28
2023-05-21T05:52:54.710Z,16.40
2023-05-21T05:55:25.128Z,16.38
2023-05-21T05:57:52.734Z,16.45
2023-05-21T06:00:20.912Z,16.45
2023-05-21T06:02:49.202Z,16.46
2023-05-21T06:05:17.249Z,16.50
2023-05-21T06:07:44.954Z,16.50
2023-05-21T06:10:12.597Z,16.55
2023-05-21T06:12:41.590Z,16.62
2023-05-21T06:15:10.301Z,16.68
2023-05-21T06:17:37.973Z,16.70
2023-05-21T06:20:07.250Z,16.74
2023-05-21T06:22:34.901Z,16.77
2023-05-21T06:25:02.502Z,16.83
2023-05-21T06:27:30.619Z,16.84
2023-05-21T06:29:59.531Z,16.89
2023-05-21T06:32:27.153Z,16.95
2023-05-21T06:34:54.763Z,16.98
2023-05-21T06:37:23.456Z,17.04
2023-05-21T06:39:52.402Z,17.07
2023-05-21T06:42:19.960Z,17.08
2023-05-21T06:44:47.517Z,17.09
2023-05-21T06:47:16.423Z,17.12
2023-05-21T06:49:43.997Z,17.15
2023-05-21T06:52:11.561Z,17.18
2023-05-21T06:54:39.240Z,17.20
2023-05-21T06:57:06.880Z,17.21
2023-05-21T06:59:34.636Z,17.20
2023-05-21T07:02:04.491Z,17.24
2023-05-21T07:04:35.263Z,17.25
2023-05-21T07:07:04.473Z,17.27
2023-05-21T07:09:32.161Z,17.29
2023-05-21T07:12:01.242Z,17.28
2023-05-21T07:14:28.851Z,17.34
2023-05-21T07:16:56.451Z,17.37
2023-05-21T07:19:24.103Z,17.42
2023-05-21T07:21:53.081Z,17.50
2023-05-21T07:24:21.113Z,17.56
2023-05-21T07:26:48.723Z,17.62
2023-05-21T07:29:16.363Z,17.73
2023-05-21T07:31:43.967Z,17.77
2023-05-21T07:34:11.544Z,17.82
2023-05-21T07:36:39.137Z,17.89
2023-05-21T07:39:08.364Z,17.94
2023-05-21T07:41:36.080Z,18.01
2023-05-21T07:44:03.716Z,18.10
2023-05-21T07:46:31.334Z,18.17
2023-05-21T07:48:58.993Z,18.22
2023-05-21T07:51:27.058Z,18.29
2023-05-21T07:53:55.381Z,18.37
2023-05-21T07:56:24.628Z,18.41
2023-05-21T07:58:52.185Z,18.47
2023-05-21T08:01:19.833Z,18.52
2023-05-21T08:03:47.529Z,18.59
2023-05-21T08:06:15.237Z,18.64
2023-05-21T08:08:42.831Z,18.71
2023-05-21T08:11:10.426Z,18.77
2023-05-21T08:13:39.355Z,18.84
2023-05-21T08:16:07.664Z,18.88
2023-05-21T08:18:35.279Z,18.93
2023-05-21T08:21:02.968Z,18.94
2023-05-21T08:23:30.536Z,18.99
2023-05-21T08:25:58.258Z,19.03
2023-05-21T08:28:27.510Z,19.07
2023-05-21T08:30:56.469Z,19.12
2023-05-21T08:33:24.074Z,19.18
2023-05-21T08:35:51.660Z,19.22
2023-05-21T08:38:19.235Z,19.26
2023-05-21T08:40:48.071Z,19.30
2023-05-21T08:43:16.541Z,19.37
2023-05-21T08:45:46.415Z,19.41
2023-05-21T08:48:17.439Z,19.43
2023-05-21T08:50:46.148Z,19.50
2023-05-21T08:53:26.653Z,19.56
2023-05-21T08:55:59.838Z,19.64
2023-05-21T08:58:28.084Z,19.69
2023-05-21T09:00:57.541Z,19.73
2023-05-21T09:03:27.427Z,19.79
2023-05-21T09:05:56.145Z,19.82
2023-05-21T09:08:30.774Z,19.87
2023-05-21T09:10:58.338Z,19.94
2023-05-21T09:13:27.446Z,20.03
2023-05-21T09:15:55.044Z,20.12
2023-05-21T09:18:22.666Z,20.21
2023-05-21T09:20:54.033Z,20.31
2023-05-21T09:23:21.649Z,20.40
2023-05-21T09:25:51.918Z,20.50
2023-05-21T09:28:21.319Z,20.58
2023-05-21T09:30:50.567Z,20.67
2023-05-21T09:33:26.578Z,20.77
2023-05-21T09:35:55.502Z,20.85
2023-05-21T09:38:24.510Z,20.92
2023-05-21T09:40:52.103Z,21.01
2023-05-21T09:43:19.726Z,21.13
2023-05-21T09:45:54.281Z,21.22
2023-05-21T09:48:35.697Z,21.29
2023-05-21T09:51:16.004Z,21.36
2023-05-21T09:53:49.842Z,21.43
2023-05-21T09:56:20.071Z,21.45
2023-05-21T09:58:47.682Z,21.45
2023-05-21T10:01:15.348Z,21.51
2023-05-21T10:03:45.508Z,21.54
2023-05-21T10:06:15.798Z,21.57
2023-05-21T10:08:48.843Z,21.62
2023-05-21T10:11:17.730Z,21.65
2023-05-21T10:13:51.939Z,21.65
2023-05-21T10:16:19.987Z,21.67
2023-05-21T10:18:49.600Z,21.69
2023-05-21T10:21:19.401Z,21.72
2023-05-21T10:23:47.350Z,21.74
2023-05-21T10:26:15.453Z,21.80
2023-05-21T10:28:43.872Z,21.87
2023-05-21T10:31:13.147Z,21.91
2023-05-21T10:33:43.176Z,21.95
2023-05-21T10:36:11.127Z,22.00
2023-05-21T10:38:41.571Z,22.07
2023-05-21T10:41:10.664Z,22.10
2023-05-21T10:43:57.460Z,22.16
2023-05-21T10:47:06.500Z,22.23
2023-05-21T10:49:50.129Z,22.30
2023-05-21T10:52:32.477Z,22.40
2023-05-21T10:55:23.531Z,22.56
2023-05-21T10:58:14.933Z,22.72
2023-05-21T11:00:44.320Z,22.83
2023-05-21T11:03:15.949Z,22.90
2023-05-21T11:05:53.818Z,22.98
2023-05-21T11:08:31.656Z,23.04
2023-05-21T11:11:00.654Z,23.10
2023-05-21T11:13:31.308Z,23.14
2023-05-21T11:16:08.963Z,23.19
2023-05-21T11:18:58.091Z,23.26
2023-05-21T11:21:28.483Z,23.31
2023-05-21T11:23:57.322Z,23.34
2023-05-21T11:26:28.281Z,23.38
2023-05-21T11:29:08.490Z,23.44
2023-05-21T11:31:39.484Z,23.51
2023-05-21T11:34:12.852Z,23.53
2023-05-21T11:36:42.125Z,23.59
2023-05-21T11:39:11.000Z,23.63
2023-05-21T11:42:01.609Z,23.70
2023-05-21T11:44:41.198Z,23.74
2023-05-21T11:47:10.217Z,23.78
2023-05-21T11:49:39.122Z,23.87
2023-05-21T11:52:09.404Z,23.93
2023-05-21T11:54:53.089Z,23.96
2023-05-21T11:57:41.226Z,24.02
2023-05-21T12:00:22.040Z,24.08
2023-05-21T12:02:56.120Z,24.11
2023-05-21T12:05:27.416Z,24.14
2023-05-21T12:07:58.558Z,24.17
2023-05-21T12:10:39.920Z,24.14
2023-05-21T12:13:21.352Z,24.12
2023-05-21T12:16:00.893Z,24.09
2023-05-21T12:18:41.486Z,24.04
2023-05-21T12:21:41.397Z,24.07
2023-05-21T12:24:16.468Z,24.13
2023-05-21T12:26:52.269Z,24.17
2023-05-21T12:32:50.487Z,24.25
2023-05-21T12:35:28.265Z,24.26
2023-05-21T12:38:04.577Z,24.25
2023-05-21T12:40:41.199Z,24.29
2023-05-21T12:43:10.114Z,24.31
2023-05-21T12:45:41.065Z,24.32
2023-05-21T12:48:09.206Z,24.35
2023-05-21T12:50:41.736Z,24.34
2023-05-21T12:53:11.067Z,24.34
2023-05-21T12:55:40.552Z,24.38
2023-05-21T12:58:09.567Z,24.40
2023-05-21T13:00:39.809Z,24.41
2023-05-21T13:03:08.446Z,24.40
2023-05-21T13:05:36.728Z,24.38
2023-05-21T13:08:04.850Z,24.31
2023-05-21T13:10:33.311Z,24.24
2023-05-21T13:13:01.844Z,24.19
2023-05-21T13:15:30.170Z,24.15
2023-05-21T13:18:01.489Z,24.13
2023-05-21T13:20:30.611Z,24.12
2023-05-21T13:22:59.152Z,24.10
2023-05-21T13:25:29.916Z,24.09
2023-05-21T13:27:59.166Z,24.13
2023-05-21T13:30:27.523Z,24.18
2023-05-21T13:32:56.625Z,24.21
2023-05-21T13:35:26.763Z,24.25
2023-05-21T13:37:58.787Z,24.32
2023-05-21T13:40:27.870Z,24.36
2023-05-21T13:42:56.622Z,24.41
2023-05-21T13:45:29.593Z,24.44
2023-05-21T13:48:01.777Z,24.44
2023-05-21T13:50:31.468Z,24.45
2023-05-21T13:53:05.553Z,24.49
2023-05-21T13:55:37.418Z,24.46
2023-05-21T13:58:06.715Z,24.47
2023-05-21T14:00:37.459Z,24.51
2023-05-21T14:03:10.189Z,24.59
2023-05-21T14:05:42.450Z,24.66
2023-05-21T14:08:10.625Z,24.73
2023-05-21T14:10:38.970Z,24.76
2023-05-21T14:13:19.485Z,24.77
2023-05-21T14:15:48.579Z,24.77
2023-05-21T14:18:16.659Z,24.80
2023-05-21T14:21:17.843Z,24.83
2023-05-21T14:24:01.155Z,24.85
2023-05-21T14:26:29.533Z,24.82
2023-05-21T14:28:57.223Z,24.75
2023-05-21T14:31:25.981Z,24.71
2023-05-21T14:33:54.017Z,24.67
2023-05-21T14:36:23.564Z,24.68
2023-05-21T14:38:51.656Z,24.65
2023-05-21T14:41:26.835Z,24.62
2023-05-21T14:43:55.408Z,24.64
2023-05-21T14:46:23.427Z,24.62
2023-05-21T14:48:51.856Z,24.61
2023-05-21T14:51:20.441Z,24.67
2023-05-21T14:53:51.503Z,24.77
2023-05-21T14:56:21.742Z,24.85
2023-05-21T14:58:49.641Z,24.93
2023-05-21T15:01:17.742Z,24.95
2023-05-21T15:03:45.786Z,24.94
2023-05-21T15:06:13.779Z,24.90
2023-05-21T15:08:41.539Z,24.88
2023-05-21T15:11:11.592Z,24.86
2023-05-21T15:13:45.832Z,24.86
2023-05-21T15:16:13.443Z,24.85
2023-05-21T15:18:41.068Z,24.80
2023-05-21T15:21:08.609Z,24.71
2023-05-21T15:23:39.822Z,24.62
2023-05-21T15:26:09.629Z,24.57
2023-05-21T15:28:39.671Z,24.56
2023-05-21T15:31:15.125Z,24.56
2023-05-21T15:33:44.713Z,24.54
2023-05-21T15:36:12.804Z,24.49
2023-05-21T15:38:46.338Z,24.48
2023-05-21T15:42:13.187Z,24.48
2023-05-21T15:45:50.573Z,24.48
2023-05-21T15:52:23.427Z,24.50
2023-05-21T20:06:48.936Z,21.12
2023-05-21T20:09:21.828Z,21.06
2023-05-21T20:11:51.062Z,21.02
2023-05-21T20:14:19.689Z,21.01
2023-05-21T20:16:48.497Z,20.99
2023-05-21T20:19:17.031Z,20.91
2023-05-21T20:22:52.685Z,20.91
2023-05-21T20:26:07.936Z,20.87
2023-05-21T20:29:10.387Z,20.80
2023-05-21T20:32:08.686Z,20.79
2023-05-21T23:21:16.156Z,18.73
2023-05-21T23:23:43.743Z,18.70
2023-05-21T23:26:11.450Z,18.69
2023-05-21T23:28:39.595Z,18.66
2023-05-21T23:31:07.196Z,18.64
2023-05-21T23:33:34.857Z,18.62
2023-05-21T23:36:02.401Z,18.60
2023-05-21T23:38:31.235Z,18.60
2023-05-21T23:40:58.777Z,18.58
2023-05-21T23:43:26.428Z,18.58
2023-05-21T23:45:53.982Z,18.57
2023-05-21T23:48:21.649Z,18.57
2023-05-21T23:50:49.402Z,18.58
2023-05-21T23:53:17.035Z,18.62
2023-05-21T23:55:46.055Z,18.62
2023-05-21T23:58:13.733Z,18.65
